Time,TemperatureF,DewpointF,PressureIn,WindDirection,WindDirectionDegrees,WindSpeedMPH,WindSpeedGustMPH,Humidity,HourlyPrecipIn,Conditions,Clouds,dailyrainin,SoftwareType,DateUTC
2013-02-15 00:12:00,27.7,23.0,29.95,NNW,342,0.0,0.0,82,0.00,,,0.00,weatherlink.com 1.10,2013-02-15 05:12:00,
2013-02-15 00:27:00,27.5,22.0,29.95,NNW,343,0.0,0.0,81,0.00,,,0.00,weatherlink.com 1.10,2013-02-15 05:27:00,
2013-02-15 00:42:00,27.1,22.0,29.95,NNW,343,0.0,0.0,82,0.00,,,0.00,weatherlink.com 1.10,2013-02-15 05:42:00,
2013-02-15 00:57:00,26.7,23.0,29.95,NNW,343,0.0,0.0,84,0.00,,,0.00,weatherlink.com 1.10,2013-02-15 05:57:00,
2013-02-15 01:12:00,26.2,22.0,29.94,NNW,343,0.0,0.0,84,0.00,,,0.00,weatherlink.com 1.10,2013-02-15 06:12:00,
2013-02-15 01:27:00,25.9,22.0,29.95,NNW,343,0.0,0.0,85,0.00,,,0.00,weatherlink.com 1.10,2013-02-15 06:27:00,
2013-02-15 01:43:00,25.7,22.0,29.95,NNW,343,0.0,0.0,86,0.00,,,0.00,weatherlink.com 1.10,2013-02-15 06:43:00,
2013-02-15 01:57:00,25.5,22.0,29.95,NNW,343,0.0,0.0,86,0.00,,,0.00,weatherlink.com 1.10,2013-02-15 06:57:00,
2013-02-15 02:12:00,25.4,22.0,29.94,NNW,343,0.0,1.0,86,0.00,,,0.00,weatherlink.com 1.10,2013-02-15 07:12:00,
2013-02-15 02:28:00,25.2,22.0,29.95,NNW,343,0.0,0.0,86,0.00,,,0.00,weatherlink.com 1.10,2013-02-15 07:28:00,
2013-02-15 02:43:00,25.2,22.0,29.94,NNW,343,1.0,1.0,87,0.00,,,0.00,weatherlink.com 1.10,2013-02-15 07:43:00,
2013-02-15 02:58:00,25.1,22.0,29.94,NNW,343,0.0,0.0,86,0.00,,,0.00,weatherlink.com 1.10,2013-02-15 07:58:00,
2013-02-15 03:13:00,24.8,21.0,29.94,NNW,342,0.0,1.0,86,0.00,,,0.00,weatherlink.com 1.10,2013-02-15 08:13:00,
2013-02-15 03:28:00,24.7,21.0,29.95,NNW,343,0.0,0.0,86,0.00,,,0.00,weatherlink.com 1.10,2013-02-15 08:28:00,
2013-02-15 03:43:00,24.4,21.0,29.94,NNW,342,0.0,1.0,86,0.00,,,0.00,weatherlink.com 1.10,2013-02-15 08:43:00,
2013-02-15 03:58:00,24.5,21.0,29.94,NNW,343,0.0,0.0,86,0.00,,,0.00,weatherlink.com 1.10,2013-02-15 08:58:00,
2013-02-15 04:13:00,24.5,21.0,29.95,NNW,342,0.0,0.0,86,0.00,,,0.00,weatherlink.com 1.10,2013-02-15 09:13:00,
2013-02-15 04:28:00,24.6,21.0,29.95,NNW,342,0.0,1.0,86,0.00,,,0.00,weatherlink.com 1.10,2013-02-15 09:28:00,
2013-02-15 04:43:00,25.2,22.0,29.95,NNW,342,0.0,0.0,86,0.00,,,0.00,weatherlink.com 1.10,2013-02-15 09:43:00,
2013-02-15 04:58:00,25.8,22.0,29.95,NNW,341,0.0,0.0,85,0.00,,,0.00,weatherlink.com 1.10,2013-02-15 09:58:00,
2013-02-15 05:13:00,26.2,22.0,29.94,NNW,328,0.0,1.0,84,0.00,,,0.00,weatherlink.com 1.10,2013-02-15 10:13:00,
2013-02-15 05:28:00,26.5,22.0,29.94,SSE,164,0.0,1.0,84,0.00,,,0.00,weatherlink.com 1.10,2013-02-15 10:28:00,
2013-02-15 05:43:00,26.6,22.0,29.93,South,169,0.0,1.0,84,0.00,,,0.00,weatherlink.com 1.10,2013-02-15 10:43:00,
2013-02-15 05:58:00,26.6,22.0,29.93,SW,228,0.0,1.0,84,0.00,,,0.00,weatherlink.com 1.10,2013-02-15 10:58:00,
2013-02-15 06:13:00,26.7,23.0,29.93,SSW,200,0.0,1.0,84,0.00,,,0.00,weatherlink.com 1.10,2013-02-15 11:13:00,
2013-02-15 06:28:00,26.8,23.0,29.94,SSW,201,0.0,1.0,85,0.00,,,0.00,weatherlink.com 1.10,2013-02-15 11:28:00,
2013-02-15 06:43:00,27.0,23.0,29.94,SW,225,1.0,2.0,85,0.00,,,0.00,weatherlink.com 1.10,2013-02-15 11:43:00,
2013-02-15 06:58:00,26.8,23.0,29.94,SW,235,1.0,3.0,86,0.00,,,0.00,weatherlink.com 1.10,2013-02-15 11:58:00,
2013-02-15 07:13:00,26.5,23.0,29.93,SW,221,0.0,3.0,87,0.00,,,0.00,weatherlink.com 1.10,2013-02-15 12:13:00,
2013-02-15 07:28:00,26.4,23.0,29.93,SW,231,1.0,2.0,88,0.00,,,0.00,weatherlink.com 1.10,2013-02-15 12:28:00,
2013-02-15 07:43:00,26.7,24.0,29.93,SSE,156,0.0,2.0,89,0.00,,,0.00,weatherlink.com 1.10,2013-02-15 12:43:00,
2013-02-15 07:58:00,27.6,25.0,29.94,WSW,239,0.0,3.0,90,0.00,,,0.00,weatherlink.com 1.10,2013-02-15 12:58:00,
2013-02-15 08:13:00,28.0,25.0,29.94,SW,216,0.0,3.0,89,0.00,,,0.00,weatherlink.com 1.10,2013-02-15 13:13:00,
2013-02-15 08:28:00,28.3,26.0,29.96,South,181,1.0,4.0,90,0.00,,,0.00,weatherlink.com 1.10,2013-02-15 13:28:00,
2013-02-15 08:43:00,28.7,26.0,29.95,SW,224,1.0,4.0,89,0.00,,,0.00,weatherlink.com 1.10,2013-02-15 13:43:00,
2013-02-15 08:58:00,28.9,26.0,29.95,SSE,158,3.0,3.0,89,0.00,,,0.00,weatherlink.com 1.10,2013-02-15 13:58:00,
2013-02-15 09:13:00,29.7,27.0,29.95,SSE,157,1.0,2.0,89,0.00,,,0.00,weatherlink.com 1.10,2013-02-15 14:13:00,
2013-02-15 09:28:00,31.1,27.0,29.95,SW,225,0.0,3.0,86,0.00,,,0.00,weatherlink.com 1.10,2013-02-15 14:28:00,
2013-02-15 09:43:00,32.1,28.0,29.95,SSW,210,1.0,5.0,85,0.00,,,0.00,weatherlink.com 1.10,2013-02-15 14:43:00,
2013-02-15 09:58:00,33.1,28.0,29.95,South,176,0.0,3.0,82,0.00,,,0.00,weatherlink.com 1.10,2013-02-15 14:58:00,
2013-02-15 10:29:00,35.9,29.0,29.94,South,174,0.0,3.0,77,0.00,,,0.00,weatherlink.com 1.10,2013-02-15 15:29:00,
2013-02-15 10:44:00,37.8,30.0,29.94,SE,132,2.0,2.0,73,0.00,,,0.00,weatherlink.com 1.10,2013-02-15 15:44:00,
2013-02-15 10:58:00,39.2,30.0,29.94,SW,231,3.0,3.0,69,0.00,,,0.00,weatherlink.com 1.10,2013-02-15 15:58:00,
2013-02-15 11:14:00,40.1,30.0,29.93,ESE,119,2.0,4.0,68,0.00,,,0.00,weatherlink.com 1.10,2013-02-15 16:14:00,
2013-02-15 11:28:00,40.7,30.0,29.92,SE,124,2.0,3.0,66,0.00,,,0.00,weatherlink.com 1.10,2013-02-15 16:28:00,
2013-02-15 11:44:00,41.6,31.0,29.91,SSE,148,3.0,4.0,66,0.00,,,0.00,weatherlink.com 1.10,2013-02-15 16:44:00,
2013-02-15 11:59:00,42.5,31.0,29.90,South,172,0.0,4.0,63,0.00,,,0.00,weatherlink.com 1.10,2013-02-15 16:59:00,
2013-02-15 12:14:00,43.8,31.0,29.89,South,169,2.0,5.0,61,0.00,,,0.00,weatherlink.com 1.10,2013-02-15 17:14:00,
2013-02-15 12:29:00,45.4,31.0,29.89,WSW,252,4.0,5.0,57,0.00,,,0.00,weatherlink.com 1.10,2013-02-15 17:29:00,
2013-02-15 12:44:00,47.2,32.0,29.88,WNW,299,2.0,6.0,55,0.00,,,0.00,weatherlink.com 1.10,2013-02-15 17:44:00,
2013-02-15 12:59:00,47.7,30.0,29.88,West,265,2.0,4.0,50,0.00,,,0.00,weatherlink.com 1.10,2013-02-15 17:59:00,
2013-02-15 13:14:00,48.2,29.0,29.87,West,259,1.0,4.0,48,0.00,,,0.00,weatherlink.com 1.10,2013-02-15 18:14:00,
2013-02-15 13:29:00,48.3,30.0,29.87,ESE,115,1.0,5.0,49,0.00,,,0.00,weatherlink.com 1.10,2013-02-15 18:29:00,
2013-02-15 13:44:00,49.0,29.0,29.87,SSW,212,1.0,5.0,46,0.00,,,0.00,weatherlink.com 1.10,2013-02-15 18:44:00,
2013-02-15 13:59:00,48.9,28.0,29.88,SSW,208,4.0,6.0,45,0.00,,,0.00,weatherlink.com 1.10,2013-02-15 18:59:00,
2013-02-15 14:14:00,48.5,28.0,29.87,SSW,208,1.0,6.0,46,0.00,,,0.00,weatherlink.com 1.10,2013-02-15 19:14:00,
2013-02-15 14:29:00,48.6,29.0,29.87,WSW,258,1.0,6.0,47,0.00,,,0.00,weatherlink.com 1.10,2013-02-15 19:29:00,
2013-02-15 14:44:00,48.6,29.0,29.87,West,278,0.0,8.0,47,0.00,,,0.00,weatherlink.com 1.10,2013-02-15 19:44:00,
2013-02-15 14:59:00,47.9,28.0,29.87,West,268,0.0,4.0,47,0.00,,,0.00,weatherlink.com 1.10,2013-02-15 19:59:00,
2013-02-15 15:14:00,47.9,28.0,29.87,SW,231,0.0,8.0,47,0.00,,,0.00,weatherlink.com 1.10,2013-02-15 20:14:00,
2013-02-15 15:29:00,47.8,28.0,29.87,NW,321,2.0,3.0,47,0.00,,,0.00,weatherlink.com 1.10,2013-02-15 20:29:00,
2013-02-15 15:44:00,47.5,28.0,29.87,WNW,290,0.0,3.0,47,0.00,,,0.00,weatherlink.com 1.10,2013-02-15 20:44:00,
2013-02-15 15:59:00,47.2,28.0,29.87,NNW,339,1.0,2.0,47,0.00,,,0.00,weatherlink.com 1.10,2013-02-15 20:59:00,
2013-02-15 16:14:00,46.9,27.0,29.87,NNW,348,1.0,4.0,47,0.00,,,0.00,weatherlink.com 1.10,2013-02-15 21:14:00,
2013-02-15 16:29:00,46.5,28.0,29.87,SE,125,1.0,2.0,48,0.00,,,0.00,weatherlink.com 1.10,2013-02-15 21:29:00,
2013-02-15 16:44:00,46.3,27.0,29.88,West,270,1.0,2.0,47,0.00,,,0.00,weatherlink.com 1.10,2013-02-15 21:44:00,
2013-02-15 16:59:00,45.7,27.0,29.88,WSW,238,0.0,1.0,48,0.00,,,0.00,weatherlink.com 1.10,2013-02-15 21:59:00,
2013-02-15 17:14:00,44.8,27.0,29.88,WSW,245,0.0,1.0,49,0.00,,,0.00,weatherlink.com 1.10,2013-02-15 22:14:00,
2013-02-15 17:29:00,43.5,26.0,29.88,WSW,245,0.0,0.0,51,0.00,,,0.00,weatherlink.com 1.10,2013-02-15 22:29:00,
2013-02-15 17:44:00,41.3,26.0,29.89,WNW,302,0.0,2.0,56,0.00,,,0.00,weatherlink.com 1.10,2013-02-15 22:44:00,
2013-02-15 17:59:00,41.5,27.0,29.89,NW,314,1.0,2.0,57,0.00,,,0.00,weatherlink.com 1.10,2013-02-15 22:59:00,
2013-02-15 18:14:00,42.9,27.0,29.90,NW,314,1.0,4.0,53,0.00,,,0.00,weatherlink.com 1.10,2013-02-15 23:14:00,
2013-02-15 18:30:00,42.1,26.0,29.90,NW,319,3.0,4.0,54,0.00,,,0.00,weatherlink.com 1.10,2013-02-15 23:30:00,
2013-02-15 18:45:00,41.3,26.0,29.90,NW,309,2.0,5.0,55,0.00,,,0.00,weatherlink.com 1.10,2013-02-15 23:45:00,
2013-02-15 18:59:00,40.7,26.0,29.91,NW,322,2.0,6.0,56,0.00,,,0.00,weatherlink.com 1.10,2013-02-15 23:59:00,
2013-02-15 19:14:00,40.4,26.0,29.91,NW,314,4.0,5.0,56,0.00,,,0.00,weatherlink.com 1.10,2013-02-16 00:14:00,
2013-02-15 19:29:00,40.4,26.0,29.91,NW,317,3.0,4.0,56,0.00,,,0.00,weatherlink.com 1.10,2013-02-16 00:29:00,
2013-02-15 19:45:00,39.9,26.0,29.91,NW,311,2.0,5.0,57,0.00,,,0.00,weatherlink.com 1.10,2013-02-16 00:45:00,
2013-02-15 19:59:00,39.3,25.0,29.91,NW,307,1.0,4.0,57,0.00,,,0.00,weatherlink.com 1.10,2013-02-16 00:59:00,
2013-02-15 20:14:00,39.1,25.0,29.91,NW,318,1.0,6.0,57,0.00,,,0.00,weatherlink.com 1.10,2013-02-16 01:14:00,
2013-02-15 20:29:00,38.5,25.0,29.91,NW,315,1.0,3.0,58,0.00,,,0.00,weatherlink.com 1.10,2013-02-16 01:29:00,
2013-02-15 20:44:00,37.9,25.0,29.92,NNW,332,1.0,2.0,59,0.00,,,0.00,weatherlink.com 1.10,2013-02-16 01:44:00,
2013-02-15 20:59:00,37.5,25.0,29.92,NW,321,0.0,2.0,60,0.00,,,0.00,weatherlink.com 1.10,2013-02-16 01:59:00,
2013-02-15 21:15:00,36.6,25.0,29.92,North,350,0.0,1.0,62,0.00,,,0.00,weatherlink.com 1.10,2013-02-16 02:15:00,
2013-02-15 21:30:00,35.6,24.0,29.92,North,350,0.0,0.0,64,0.00,,,0.00,weatherlink.com 1.10,2013-02-16 02:30:00,
2013-02-15 21:45:00,35.0,25.0,29.92,North,350,0.0,0.0,67,0.00,,,0.00,weatherlink.com 1.10,2013-02-16 02:45:00,
2013-02-15 22:00:00,34.0,24.0,29.92,North,350,0.0,1.0,68,0.00,,,0.00,weatherlink.com 1.10,2013-02-16 03:00:00,
2013-02-15 22:15:00,33.4,23.0,29.91,North,350,0.0,0.0,67,0.00,,,0.00,weatherlink.com 1.10,2013-02-16 03:15:00,
2013-02-15 22:30:00,33.1,23.0,29.92,North,349,1.0,1.0,67,0.00,,,0.00,weatherlink.com 1.10,2013-02-16 03:30:00,
2013-02-15 22:45:00,33.5,23.0,29.92,North,349,0.0,0.0,65,0.00,,,0.00,weatherlink.com 1.10,2013-02-16 03:45:00,
2013-02-15 23:00:00,33.6,23.0,29.92,North,349,0.0,0.0,66,0.00,,,0.00,weatherlink.com 1.10,2013-02-16 04:00:00,
2013-02-15 23:15:00,33.8,23.0,29.91,NNW,333,1.0,2.0,65,0.00,,,0.00,weatherlink.com 1.10,2013-02-16 04:15:00,
2013-02-15 23:30:00,34.3,23.0,29.92,NNW,333,0.0,0.0,63,0.00,,,0.00,weatherlink.com 1.10,2013-02-16 04:30:00,
2013-02-15 23:45:00,34.7,23.0,29.92,NNW,333,0.0,0.0,63,0.00,,,0.00,weatherlink.com 1.10,2013-02-16 04:45:00,